Terminal Aerodrome Forecast
Issued by NWS

Home | Current Version | Previous Version | Text Only | Print | Product List | Glossary On
Versions: 1 2 3 4 5 6 7 8 9 10 11 12 13 14 15 16 17 18 19 20 21 22 23
000
FTUS44 KEWX 070520
TAFSSF
TAF
KSSF 070520Z 0706/0806 13010KT P6SM BKN015 OVC030
     FM070800 14010KT 5SM BR OVC007
     FM071800 16012KT P6SM VCSH BKN015 OVC030
     FM072300 13010KT P6SM BKN025
     FM080300 14014KT P6SM OVC015=

USA.gov is the U.S. government's official web portal to all federal, state and local government web resources and services.